sensor_id;sensor_type;location;lat;lon;timestamp;pressure;altitude;pressure_sealevel;temperature;humidity
967;BME280;56108;48.730;9.304;2023-04-28T00:01:14;97365.22;;;10.80;83.81
967;BME280;56108;48.730;9.304;2023-04-28T00:03:25;97366.09;;;10.81;84.02
967;BME280;56108;48.730;9.304;2023-04-28T00:05:33;97363.53;;;10.79;84.08
967;BME280;56108;48.730;9.304;2023-04-28T00:07:41;97359.81;;;10.82;83.37
967;BME280;56108;48.730;9.304;2023-04-28T00:09:49;97369.19;;;10.75;84.00
967;BME280;56108;48.730;9.304;2023-04-28T00:11:56;97354.19;;;10.74;85.19
967;BME280;56108;48.730;9.304;2023-04-28T00:14:05;97353.72;;;10.80;84.84
967;BME280;56108;48.730;9.304;2023-04-28T00:16:13;97353.97;;;10.77;85.41
967;BME280;56108;48.730;9.304;2023-04-28T00:18:21;97355.31;;;10.82;84.51
967;BME280;56108;48.730;9.304;2023-04-28T00:20:32;97342.47;;;10.76;84.96
967;BME280;56108;48.730;9.304;2023-04-28T00:22:40;97336.41;;;10.74;85.90
967;BME280;56108;48.730;9.304;2023-04-28T00:24:48;97332.88;;;10.74;86.85
967;BME280;56108;48.730;9.304;2023-04-28T00:26:56;97343.06;;;10.80;86.43
967;BME280;56108;48.730;9.304;2023-04-28T00:29:05;97341.03;;;10.83;87.39
967;BME280;56108;48.730;9.304;2023-04-28T00:31:14;97330.72;;;10.79;87.76
967;BME280;56108;48.730;9.304;2023-04-28T00:33:22;97321.00;;;10.66;87.84
967;BME280;56108;48.730;9.304;2023-04-28T00:35:33;97322.81;;;10.66;88.64
967;BME280;56108;48.730;9.304;2023-04-28T00:37:41;97330.47;;;10.70;88.48
967;BME280;56108;48.730;9.304;2023-04-28T00:39:53;97330.81;;;10.66;87.72
967;BME280;56108;48.730;9.304;2023-04-28T00:42:05;97331.91;;;10.75;86.90
967;BME280;56108;48.730;9.304;2023-04-28T00:44:14;97330.84;;;10.77;86.38
967;BME280;56108;48.730;9.304;2023-04-28T00:46:25;97324.56;;;10.78;86.74
967;BME280;56108;48.730;9.304;2023-04-28T00:48:37;97316.59;;;10.78;86.50
967;BME280;56108;48.730;9.304;2023-04-28T00:50:48;97317.75;;;10.74;86.32
967;BME280;56108;48.730;9.304;2023-04-28T00:52:56;97310.25;;;10.68;87.32
967;BME280;56108;48.730;9.304;2023-04-28T00:55:05;97316.78;;;10.75;87.24
967;BME280;56108;48.730;9.304;2023-04-28T00:57:14;97320.88;;;10.92;85.38
967;BME280;56108;48.730;9.304;2023-04-28T00:59:23;97319.66;;;10.96;85.03
967;BME280;56108;48.730;9.304;2023-04-28T01:01:31;97319.16;;;10.91;85.43
967;BME280;56108;48.730;9.304;2023-04-28T01:03:40;97319.41;;;10.88;84.66
967;BME280;56108;48.730;9.304;2023-04-28T01:05:51;97316.75;;;10.88;85.24
967;BME280;56108;48.730;9.304;2023-04-28T01:08:00;97310.31;;;10.90;85.05
967;BME280;56108;48.730;9.304;2023-04-28T01:10:09;97302.97;;;10.94;85.44
967;BME280;56108;48.730;9.304;2023-04-28T01:12:18;97297.00;;;10.90;86.12
967;BME280;56108;48.730;9.304;2023-04-28T01:14:27;97300.91;;;10.86;87.82
967;BME280;56108;48.730;9.304;2023-04-28T01:16:37;97297.50;;;10.95;85.86
967;BME280;56108;48.730;9.304;2023-04-28T01:18:46;97295.59;;;10.97;85.88
967;BME280;56108;48.730;9.304;2023-04-28T01:20:57;97298.34;;;10.96;86.08
967;BME280;56108;48.730;9.304;2023-04-28T01:23:10;97293.41;;;10.91;86.31
967;BME280;56108;48.730;9.304;2023-04-28T01:25:21;97297.97;;;10.89;87.26
967;BME280;56108;48.730;9.304;2023-04-28T01:27:30;97298.22;;;10.86;88.58
967;BME280;56108;48.730;9.304;2023-04-28T01:29:38;97283.59;;;10.92;90.95
967;BME280;56108;48.730;9.304;2023-04-28T01:31:46;97292.06;;;10.86;92.96
967;BME280;56108;48.730;9.304;2023-04-28T01:33:54;97291.66;;;10.79;92.65
967;BME280;56108;48.730;9.304;2023-04-28T01:36:03;97285.34;;;10.80;94.17
967;BME280;56108;48.730;9.304;2023-04-28T01:38:11;97290.47;;;10.83;91.03
967;BME280;56108;48.730;9.304;2023-04-28T01:40:21;97287.81;;;10.83;92.18
967;BME280;56108;48.730;9.304;2023-04-28T01:42:29;97280.03;;;10.80;90.52
967;BME280;56108;48.730;9.304;2023-04-28T01:44:39;97271.22;;;10.80;90.91
967;BME280;56108;48.730;9.304;2023-04-28T01:46:47;97268.94;;;10.86;90.63
967;BME280;56108;48.730;9.304;2023-04-28T01:49:05;97279.69;;;10.85;90.73
967;BME280;56108;48.730;9.304;2023-04-28T01:51:13;97273.31;;;10.87;90.32
967;BME280;56108;48.730;9.304;2023-04-28T01:53:24;97275.09;;;10.76;91.08
967;BME280;56108;48.730;9.304;2023-04-28T01:55:36;97273.78;;;10.81;90.76
967;BME280;56108;48.730;9.304;2023-04-28T01:57:57;97268.94;;;10.86;89.84
967;BME280;56108;48.730;9.304;2023-04-28T02:00:08;97263.38;;;10.89;89.51
967;BME280;56108;48.730;9.304;2023-04-28T02:02:25;97255.88;;;10.94;89.61
967;BME280;56108;48.730;9.304;2023-04-28T02:04:34;97266.41;;;10.96;88.90
967;BME280;56108;48.730;9.304;2023-04-28T02:06:42;97272.06;;;10.80;90.38
967;BME280;56108;48.730;9.304;2023-04-28T02:08:50;97260.66;;;10.67;91.30
967;BME280;56108;48.730;9.304;2023-04-28T02:11:01;97257.41;;;10.75;90.93
967;BME280;56108;48.730;9.304;2023-04-28T02:13:08;97263.69;;;10.74;90.94
967;BME280;56108;48.730;9.304;2023-04-28T02:15:16;97252.06;;;10.75;89.68
967;BME280;56108;48.730;9.304;2023-04-28T02:17:26;97246.75;;;10.75;90.76
967;BME280;56108;48.730;9.304;2023-04-28T02:19:36;97253.53;;;10.79;90.23
967;BME280;56108;48.730;9.304;2023-04-28T02:21:45;97234.41;;;10.74;89.98
967;BME280;56108;48.730;9.304;2023-04-28T02:23:53;97236.22;;;10.73;90.88
967;BME280;56108;48.730;9.304;2023-04-28T02:26:04;97239.59;;;10.75;90.69
967;BME280;56108;48.730;9.304;2023-04-28T02:28:12;97234.16;;;10.65;91.21
967;BME280;56108;48.730;9.304;2023-04-28T02:30:21;97246.63;;;10.65;92.68
967;BME280;56108;48.730;9.304;2023-04-28T02:32:29;97253.13;;;10.61;92.02
967;BME280;56108;48.730;9.304;2023-04-28T02:34:37;97250.47;;;10.61;94.01
967;BME280;56108;48.730;9.304;2023-04-28T02:36:45;97248.28;;;10.55;93.32
967;BME280;56108;48.730;9.304;2023-04-28T02:38:52;97241.00;;;10.57;93.38
967;BME280;56108;48.730;9.304;2023-04-28T02:41:04;97236.41;;;10.59;93.24
967;BME280;56108;48.730;9.304;2023-04-28T02:43:13;97237.38;;;10.58;93.24
967;BME280;56108;48.730;9.304;2023-04-28T02:45:21;97229.19;;;10.61;93.38
967;BME280;56108;48.730;9.304;2023-04-28T02:47:29;97236.53;;;10.57;93.48
967;BME280;56108;48.730;9.304;2023-04-28T02:49:37;97234.50;;;10.61;93.38
967;BME280;56108;48.730;9.304;2023-04-28T02:51:46;97226.41;;;10.62;94.18
967;BME280;56108;48.730;9.304;2023-04-28T02:53:53;97236.06;;;10.63;94.06
967;BME280;56108;48.730;9.304;2023-04-28T02:56:09;97244.97;;;10.51;94.36
967;BME280;56108;48.730;9.304;2023-04-28T02:58:19;97235.41;;;10.49;96.10
967;BME280;56108;48.730;9.304;2023-04-28T03:00:27;97239.88;;;10.48;96.91
967;BME280;56108;48.730;9.304;2023-04-28T03:02:36;97236.25;;;10.49;99.33
967;BME280;56108;48.730;9.304;2023-04-28T03:04:44;97238.44;;;10.44;100.00
967;BME280;56108;48.730;9.304;2023-04-28T03:06:52;97234.38;;;10.38;100.00
967;BME280;56108;48.730;9.304;2023-04-28T03:09:00;97239.00;;;10.36;100.00
967;BME280;56108;48.730;9.304;2023-04-28T03:11:12;97236.34;;;10.36;100.00
967;BME280;56108;48.730;9.304;2023-04-28T03:13:20;97236.44;;;10.35;100.00
967;BME280;56108;48.730;9.304;2023-04-28T03:15:29;97241.53;;;10.38;100.00
967;BME280;56108;48.730;9.304;2023-04-28T03:17:37;97240.94;;;10.34;100.00
967;BME280;56108;48.730;9.304;2023-04-28T03:19:47;97239.31;;;10.32;100.00
967;BME280;56108;48.730;9.304;2023-04-28T03:21:55;97243.09;;;10.29;100.00
967;BME280;56108;48.730;9.304;2023-04-28T03:24:04;97230.19;;;10.23;100.00
967;BME280;56108;48.730;9.304;2023-04-28T03:26:15;97223.72;;;10.27;100.00
967;BME280;56108;48.730;9.304;2023-04-28T03:28:24;97226.88;;;10.32;100.00
967;BME280;56108;48.730;9.304;2023-04-28T03:30:32;97219.22;;;10.28;100.00
967;BME280;56108;48.730;9.304;2023-04-28T03:32:40;97218.16;;;10.30;100.00
967;BME280;56108;48.730;9.304;2023-04-28T03:34:48;97220.72;;;10.32;100.00
967;BME280;56108;48.730;9.304;2023-04-28T03:36:56;97217.72;;;10.36;100.00
967;BME280;56108;48.730;9.304;2023-04-28T03:39:06;97225.56;;;10.38;100.00
967;BME280;56108;48.730;9.304;2023-04-28T03:41:17;97223.75;;;10.38;100.00
967;BME280;56108;48.730;9.304;2023-04-28T03:43:44;97219.91;;;10.42;100.00
967;BME280;56108;48.730;9.304;2023-04-28T03:46:03;97211.84;;;10.44;100.00
967;BME280;56108;48.730;9.304;2023-04-28T03:48:11;97216.28;;;10.43;100.00
967;BME280;56108;48.730;9.304;2023-04-28T03:50:20;97218.94;;;10.43;100.00
967;BME280;56108;48.730;9.304;2023-04-28T03:52:30;97211.59;;;10.47;100.00
967;BME280;56108;48.730;9.304;2023-04-28T03:54:39;97224.03;;;10.47;100.00
967;BME280;56108;48.730;9.304;2023-04-28T03:56:50;97226.69;;;10.47;100.00
967;BME280;56108;48.730;9.304;2023-04-28T03:58:58;97217.38;;;10.41;100.00
967;BME280;56108;48.730;9.304;2023-04-28T04:01:06;97214.84;;;10.39;100.00
967;BME280;56108;48.730;9.304;2023-04-28T04:03:15;97215.34;;;10.44;100.00
967;BME280;56108;48.730;9.304;2023-04-28T04:05:25;97207.22;;;10.46;100.00
967;BME280;56108;48.730;9.304;2023-04-28T04:07:34;97207.97;;;10.48;100.00
967;BME280;56108;48.730;9.304;2023-04-28T04:09:43;97215.22;;;10.46;100.00
967;BME280;56108;48.730;9.304;2023-04-28T04:11:54;97206.25;;;10.47;100.00
967;BME280;56108;48.730;9.304;2023-04-28T04:14:02;97209.78;;;10.48;100.00
967;BME280;56108;48.730;9.304;2023-04-28T04:16:11;97205.91;;;10.52;100.00
967;BME280;56108;48.730;9.304;2023-04-28T04:18:20;97207.78;;;10.62;100.00
967;BME280;56108;48.730;9.304;2023-04-28T04:20:51;97208.00;;;10.59;100.00
967;BME280;56108;48.730;9.304;2023-04-28T04:23:00;97206.44;;;10.57;100.00
967;BME280;56108;48.730;9.304;2023-04-28T04:25:08;97202.97;;;10.79;100.00
967;BME280;56108;48.730;9.304;2023-04-28T04:27:20;97199.25;;;10.81;100.00
967;BME280;56108;48.730;9.304;2023-04-28T04:29:28;97201.75;;;10.71;100.00
967;BME280;56108;48.730;9.304;2023-04-28T04:31:40;97204.75;;;10.67;100.00
967;BME280;56108;48.730;9.304;2023-04-28T04:33:50;97198.72;;;10.65;100.00
967;BME280;56108;48.730;9.304;2023-04-28T04:35:59;97193.66;;;10.73;100.00
967;BME280;56108;48.730;9.304;2023-04-28T04:38:09;97195.34;;;10.74;100.00
967;BME280;56108;48.730;9.304;2023-04-28T04:40:17;97192.56;;;10.76;100.00
967;BME280;56108;48.730;9.304;2023-04-28T04:42:29;97193.41;;;10.76;100.00
967;BME280;56108;48.730;9.304;2023-04-28T04:44:45;97204.56;;;10.81;100.00
967;BME280;56108;48.730;9.304;2023-04-28T04:47:03;97203.22;;;10.76;100.00
967;BME280;56108;48.730;9.304;2023-04-28T04:49:13;97196.78;;;10.67;100.00
967;BME280;56108;48.730;9.304;2023-04-28T04:51:22;97198.91;;;10.51;100.00
967;BME280;56108;48.730;9.304;2023-04-28T04:53:30;97199.16;;;10.59;100.00
967;BME280;56108;48.730;9.304;2023-04-28T04:55:38;97212.09;;;10.52;100.00
967;BME280;56108;48.730;9.304;2023-04-28T04:57:48;97203.75;;;10.57;100.00
967;BME280;56108;48.730;9.304;2023-04-28T05:00:09;97205.78;;;10.53;100.00
967;BME280;56108;48.730;9.304;2023-04-28T05:02:19;97205.41;;;10.47;100.00
967;BME280;56108;48.730;9.304;2023-04-28T05:04:27;97204.41;;;10.36;100.00
967;BME280;56108;48.730;9.304;2023-04-28T05:06:36;97205.72;;;10.31;100.00
967;BME280;56108;48.730;9.304;2023-04-28T05:08:44;97196.06;;;10.30;100.00
967;BME280;56108;48.730;9.304;2023-04-28T05:10:52;97192.69;;;10.15;100.00
967;BME280;56108;48.730;9.304;2023-04-28T05:13:03;97195.47;;;10.13;100.00
967;BME280;56108;48.730;9.304;2023-04-28T05:15:12;97188.16;;;10.04;100.00
967;BME280;56108;48.730;9.304;2023-04-28T05:17:29;97185.22;;;9.96;100.00
967;BME280;56108;48.730;9.304;2023-04-28T05:19:36;97185.91;;;9.87;100.00
967;BME280;56108;48.730;9.304;2023-04-28T05:21:45;97181.53;;;9.86;100.00
967;BME280;56108;48.730;9.304;2023-04-28T05:24:01;97168.75;;;9.91;100.00
967;BME280;56108;48.730;9.304;2023-04-28T05:26:09;97180.34;;;9.90;100.00
967;BME280;56108;48.730;9.304;2023-04-28T05:28:20;97168.41;;;9.96;100.00
967;BME280;56108;48.730;9.304;2023-04-28T05:30:31;97170.34;;;9.93;100.00
967;BME280;56108;48.730;9.304;2023-04-28T05:32:40;97167.56;;;9.95;100.00
967;BME280;56108;48.730;9.304;2023-04-28T05:34:48;97155.38;;;9.92;100.00
967;BME280;56108;48.730;9.304;2023-04-28T05:36:56;97147.78;;;9.99;100.00
967;BME280;56108;48.730;9.304;2023-04-28T05:39:06;97140.19;;;10.06;100.00
967;BME280;56108;48.730;9.304;2023-04-28T05:41:16;97135.63;;;10.08;100.00
967;BME280;56108;48.730;9.304;2023-04-28T05:43:27;97137.19;;;10.10;100.00
967;BME280;56108;48.730;9.304;2023-04-28T05:45:35;97132.59;;;10.12;100.00
967;BME280;56108;48.730;9.304;2023-04-28T05:47:43;97114.44;;;10.06;100.00
967;BME280;56108;48.730;9.304;2023-04-28T05:49:52;97107.66;;;10.02;100.00
967;BME280;56108;48.730;9.304;2023-04-28T05:51:59;97103.84;;;9.82;100.00
967;BME280;56108;48.730;9.304;2023-04-28T05:54:08;97091.13;;;9.75;100.00
967;BME280;56108;48.730;9.304;2023-04-28T05:56:21;97094.34;;;9.67;100.00
967;BME280;56108;48.730;9.304;2023-04-28T05:58:31;97095.03;;;9.58;100.00
967;BME280;56108;48.730;9.304;2023-04-28T06:00:40;97079.94;;;9.58;100.00
967;BME280;56108;48.730;9.304;2023-04-28T06:02:48;97078.38;;;9.56;100.00
967;BME280;56108;48.730;9.304;2023-04-28T06:04:57;97079.94;;;9.58;100.00
967;BME280;56108;48.730;9.304;2023-04-28T06:07:07;97078.69;;;9.51;100.00
967;BME280;56108;48.730;9.304;2023-04-28T06:09:15;97082.34;;;9.37;100.00
967;BME280;56108;48.730;9.304;2023-04-28T06:11:24;97081.06;;;9.43;100.00
967;BME280;56108;48.730;9.304;2023-04-28T06:13:34;97079.53;;;9.52;100.00
967;BME280;56108;48.730;9.304;2023-04-28T06:15:43;97066.09;;;9.42;100.00
967;BME280;56108;48.730;9.304;2023-04-28T06:17:51;97061.94;;;9.38;100.00
967;BME280;56108;48.730;9.304;2023-04-28T06:20:00;97051.22;;;9.39;100.00
967;BME280;56108;48.730;9.304;2023-04-28T06:22:08;97058.13;;;9.42;100.00
967;BME280;56108;48.730;9.304;2023-04-28T06:24:16;97051.00;;;9.43;100.00
967;BME280;56108;48.730;9.304;2023-04-28T06:26:25;97054.44;;;9.32;100.00
967;BME280;56108;48.730;9.304;2023-04-28T06:28:36;97053.66;;;9.43;100.00
967;BME280;56108;48.730;9.304;2023-04-28T06:30:45;97044.72;;;9.44;100.00
967;BME280;56108;48.730;9.304;2023-04-28T06:32:53;97031.09;;;9.48;100.00
967;BME280;56108;48.730;9.304;2023-04-28T06:35:01;97023.75;;;9.52;100.00
967;BME280;56108;48.730;9.304;2023-04-28T06:37:10;97018.63;;;9.61;100.00
967;BME280;56108;48.730;9.304;2023-04-28T06:39:18;97017.66;;;9.38;100.00
967;BME280;56108;48.730;9.304;2023-04-28T06:41:26;97004.50;;;9.37;100.00
967;BME280;56108;48.730;9.304;2023-04-28T06:43:39;97005.22;;;9.39;100.00
967;BME280;56108;48.730;9.304;2023-04-28T06:46:06;96993.75;;;9.38;100.00
967;BME280;56108;48.730;9.304;2023-04-28T06:48:14;96994.00;;;9.35;100.00
967;BME280;56108;48.730;9.304;2023-04-28T06:50:23;96995.19;;;9.55;100.00
967;BME280;56108;48.730;9.304;2023-04-28T06:52:31;96995.50;;;9.51;100.00
967;BME280;56108;48.730;9.304;2023-04-28T06:54:43;96997.84;;;9.55;100.00
967;BME280;56108;48.730;9.304;2023-04-28T06:56:51;96991.44;;;9.58;100.00
967;BME280;56108;48.730;9.304;2023-04-28T06:59:04;96997.03;;;9.66;100.00
967;BME280;56108;48.730;9.304;2023-04-28T07:01:13;96991.22;;;9.61;100.00
967;BME280;56108;48.730;9.304;2023-04-28T07:03:21;96992.78;;;9.63;100.00
967;BME280;56108;48.730;9.304;2023-04-28T07:05:30;96988.44;;;9.62;100.00
967;BME280;56108;48.730;9.304;2023-04-28T07:07:41;96984.47;;;9.68;100.00
967;BME280;56108;48.730;9.304;2023-04-28T07:09:49;96983.34;;;9.59;100.00
967;BME280;56108;48.730;9.304;2023-04-28T07:11:57;96987.13;;;9.68;100.00
967;BME280;56108;48.730;9.304;2023-04-28T07:14:08;96973.84;;;9.68;100.00
967;BME280;56108;48.730;9.304;2023-04-28T07:16:16;96979.88;;;9.81;100.00
967;BME280;56108;48.730;9.304;2023-04-28T07:18:25;96971.19;;;9.79;100.00
967;BME280;56108;48.730;9.304;2023-04-28T07:20:33;96972.19;;;9.89;100.00
967;BME280;56108;48.730;9.304;2023-04-28T07:22:41;96977.53;;;10.01;100.00
967;BME280;56108;48.730;9.304;2023-04-28T07:24:49;96968.97;;;9.97;100.00
967;BME280;56108;48.730;9.304;2023-04-28T07:26:57;96966.53;;;9.94;100.00
967;BME280;56108;48.730;9.304;2023-04-28T07:29:08;96965.81;;;9.92;100.00
967;BME280;56108;48.730;9.304;2023-04-28T07:31:18;96956.75;;;9.94;100.00
967;BME280;56108;48.730;9.304;2023-04-28T07:33:26;96949.38;;;9.98;100.00
967;BME280;56108;48.730;9.304;2023-04-28T07:35:33;96949.25;;;10.11;100.00
967;BME280;56108;48.730;9.304;2023-04-28T07:37:42;96949.53;;;10.19;100.00
967;BME280;56108;48.730;9.304;2023-04-28T07:39:50;96954.03;;;10.30;100.00
967;BME280;56108;48.730;9.304;2023-04-28T07:41:58;96950.09;;;10.23;100.00
967;BME280;56108;48.730;9.304;2023-04-28T07:44:09;96948.72;;;10.30;100.00
967;BME280;56108;48.730;9.304;2023-04-28T07:46:18;96944.72;;;10.35;100.00
967;BME280;56108;48.730;9.304;2023-04-28T07:48:26;96946.88;;;10.41;100.00
967;BME280;56108;48.730;9.304;2023-04-28T07:50:34;96950.03;;;10.47;100.00
967;BME280;56108;48.730;9.304;2023-04-28T07:52:42;96945.44;;;10.60;100.00
967;BME280;56108;48.730;9.304;2023-04-28T07:54:50;96948.19;;;10.69;100.00
967;BME280;56108;48.730;9.304;2023-04-28T07:56:58;96949.03;;;10.70;100.00
967;BME280;56108;48.730;9.304;2023-04-28T07:59:12;96946.97;;;10.74;100.00
967;BME280;56108;48.730;9.304;2023-04-28T08:01:20;96943.41;;;10.95;100.00
967;BME280;56108;48.730;9.304;2023-04-28T08:03:28;96935.94;;;10.89;100.00
967;BME280;56108;48.730;9.304;2023-04-28T08:05:37;96946.34;;;10.92;100.00
967;BME280;56108;48.730;9.304;2023-04-28T08:07:46;96953.19;;;11.06;100.00
967;BME280;56108;48.730;9.304;2023-04-28T08:09:54;96962.25;;;11.15;100.00
967;BME280;56108;48.730;9.304;2023-04-28T08:12:02;96971.88;;;11.27;100.00
967;BME280;56108;48.730;9.304;2023-04-28T08:14:13;96978.44;;;11.34;100.00
967;BME280;56108;48.730;9.304;2023-04-28T08:16:21;96977.06;;;11.40;100.00
967;BME280;56108;48.730;9.304;2023-04-28T08:18:30;96979.59;;;11.41;100.00
967;BME280;56108;48.730;9.304;2023-04-28T08:20:38;96987.13;;;11.36;100.00
967;BME280;56108;48.730;9.304;2023-04-28T08:22:46;96982.03;;;11.44;100.00
967;BME280;56108;48.730;9.304;2023-04-28T08:24:54;96987.34;;;11.44;100.00
967;BME280;56108;48.730;9.304;2023-04-28T08:27:02;96993.84;;;11.52;100.00
967;BME280;56108;48.730;9.304;2023-04-28T08:29:13;96992.50;;;11.57;100.00
967;BME280;56108;48.730;9.304;2023-04-28T08:31:21;96994.84;;;11.50;100.00
967;BME280;56108;48.730;9.304;2023-04-28T08:33:29;97006.75;;;11.67;100.00
967;BME280;56108;48.730;9.304;2023-04-28T08:35:37;97002.25;;;11.68;100.00
967;BME280;56108;48.730;9.304;2023-04-28T08:37:45;96999.81;;;11.76;100.00
967;BME280;56108;48.730;9.304;2023-04-28T08:39:54;97004.41;;;11.85;100.00
967;BME280;56108;48.730;9.304;2023-04-28T08:42:06;97010.91;;;11.92;100.00
967;BME280;56108;48.730;9.304;2023-04-28T08:44:18;97013.38;;;12.05;100.00
967;BME280;56108;48.730;9.304;2023-04-28T08:46:27;97017.09;;;12.14;100.00
967;BME280;56108;48.730;9.304;2023-04-28T08:48:39;97030.94;;;11.87;100.00
967;BME280;56108;48.730;9.304;2023-04-28T08:50:50;97028.78;;;11.37;100.00
967;BME280;56108;48.730;9.304;2023-04-28T08:53:03;97028.34;;;11.21;100.00
967;BME280;56108;48.730;9.304;2023-04-28T08:55:11;97014.22;;;10.98;100.00
967;BME280;56108;48.730;9.304;2023-04-28T08:57:21;97011.94;;;10.93;100.00
967;BME280;56108;48.730;9.304;2023-04-28T08:59:32;97006.84;;;11.02;100.00
967;BME280;56108;48.730;9.304;2023-04-28T09:01:41;97010.31;;;11.13;100.00
967;BME280;56108;48.730;9.304;2023-04-28T09:03:49;97002.53;;;11.21;100.00
967;BME280;56108;48.730;9.304;2023-04-28T09:05:58;97000.41;;;11.47;100.00
967;BME280;56108;48.730;9.304;2023-04-28T09:08:06;96997.97;;;11.56;100.00
967;BME280;56108;48.730;9.304;2023-04-28T09:10:17;97008.63;;;11.56;100.00
967;BME280;56108;48.730;9.304;2023-04-28T09:12:35;97006.03;;;11.65;100.00
967;BME280;56108;48.730;9.304;2023-04-28T09:14:56;97006.88;;;11.66;100.00
967;BME280;56108;48.730;9.304;2023-04-28T09:17:13;97007.88;;;11.54;100.00
967;BME280;56108;48.730;9.304;2023-04-28T09:19:22;97006.81;;;11.56;100.00
967;BME280;56108;48.730;9.304;2023-04-28T09:21:30;97011.16;;;11.57;100.00
967;BME280;56108;48.730;9.304;2023-04-28T09:23:46;97009.31;;;11.58;100.00
967;BME280;56108;48.730;9.304;2023-04-28T09:25:56;97008.56;;;11.67;100.00
967;BME280;56108;48.730;9.304;2023-04-28T09:28:19;97007.53;;;11.79;100.00
967;BME280;56108;48.730;9.304;2023-04-28T09:30:40;97006.50;;;12.02;100.00
967;BME280;56108;48.730;9.304;2023-04-28T09:33:03;97006.09;;;12.28;100.00
967;BME280;56108;48.730;9.304;2023-04-28T09:35:16;97014.28;;;12.36;100.00
967;BME280;56108;48.730;9.304;2023-04-28T09:37:45;97017.25;;;12.73;100.00
967;BME280;56108;48.730;9.304;2023-04-28T09:39:53;97020.16;;;12.91;100.00
967;BME280;56108;48.730;9.304;2023-04-28T09:42:06;97013.50;;;13.16;100.00
967;BME280;56108;48.730;9.304;2023-04-28T09:44:15;97023.38;;;13.25;100.00
967;BME280;56108;48.730;9.304;2023-04-28T09:46:29;97017.91;;;13.46;100.00
967;BME280;56108;48.730;9.304;2023-04-28T09:48:39;97029.78;;;13.63;100.00
967;BME280;56108;48.730;9.304;2023-04-28T09:50:47;97047.66;;;13.72;100.00
967;BME280;56108;48.730;9.304;2023-04-28T09:52:56;97052.88;;;14.13;100.00
967;BME280;56108;48.730;9.304;2023-04-28T09:55:06;97063.66;;;14.40;100.00
967;BME280;56108;48.730;9.304;2023-04-28T09:57:16;97078.63;;;14.62;100.00
967;BME280;56108;48.730;9.304;2023-04-28T09:59:26;97090.41;;;14.88;100.00
967;BME280;56108;48.730;9.304;2023-04-28T10:01:39;97112.59;;;15.08;100.00
967;BME280;56108;48.730;9.304;2023-04-28T10:03:48;97125.25;;;15.26;100.00
967;BME280;56108;48.730;9.304;2023-04-28T10:05:58;97139.81;;;15.51;100.00
967;BME280;56108;48.730;9.304;2023-04-28T10:08:06;97149.53;;;15.89;100.00
967;BME280;56108;48.730;9.304;2023-04-28T10:10:14;97167.63;;;16.05;100.00
967;BME280;56108;48.730;9.304;2023-04-28T10:12:23;97181.78;;;16.42;100.00
967;BME280;56108;48.730;9.304;2023-04-28T10:14:32;97191.25;;;16.82;100.00
967;BME280;56108;48.730;9.304;2023-04-28T10:16:43;97195.91;;;16.80;100.00
967;BME280;56108;48.730;9.304;2023-04-28T10:18:55;97203.84;;;16.82;100.00
967;BME280;56108;48.730;9.304;2023-04-28T10:21:05;97206.47;;;17.17;100.00
967;BME280;56108;48.730;9.304;2023-04-28T10:23:41;97215.25;;;17.02;100.00
967;BME280;56108;48.730;9.304;2023-04-28T10:25:56;97201.84;;;16.84;100.00
967;BME280;56108;48.730;9.304;2023-04-28T10:30:15;97211.72;;;17.27;100.00
967;BME280;56108;48.730;9.304;2023-04-28T10:32:30;97218.59;;;17.47;100.00
967;BME280;56108;48.730;9.304;2023-04-28T10:34:38;97215.75;;;17.23;100.00
967;BME280;56108;48.730;9.304;2023-04-28T10:36:48;97215.22;;;17.19;100.00
967;BME280;56108;48.730;9.304;2023-04-28T10:39:09;97208.16;;;17.18;100.00
967;BME280;56108;48.730;9.304;2023-04-28T10:41:31;97215.59;;;17.51;100.00
967;BME280;56108;48.730;9.304;2023-04-28T10:43:39;97222.81;;;17.50;100.00
967;BME280;56108;48.730;9.304;2023-04-28T10:46:03;97221.22;;;17.65;100.00
967;BME280;56108;48.730;9.304;2023-04-28T10:48:14;97225.97;;;17.19;100.00
967;BME280;56108;48.730;9.304;2023-04-28T10:50:23;97220.41;;;17.39;100.00
967;BME280;56108;48.730;9.304;2023-04-28T10:52:49;97219.28;;;17.24;100.00
967;BME280;56108;48.730;9.304;2023-04-28T10:55:31;97215.63;;;17.07;100.00
967;BME280;56108;48.730;9.304;2023-04-28T10:57:40;97217.63;;;17.05;100.00
967;BME280;56108;48.730;9.304;2023-04-28T10:59:49;97213.25;;;17.04;100.00
967;BME280;56108;48.730;9.304;2023-04-28T11:05:11;97227.88;;;17.53;100.00
967;BME280;56108;48.730;9.304;2023-04-28T11:07:20;97228.66;;;17.71;100.00
967;BME280;56108;48.730;9.304;2023-04-28T11:09:46;97232.00;;;17.99;100.00
967;BME280;56108;48.730;9.304;2023-04-28T11:12:05;97233.09;;;18.15;100.00
967;BME280;56108;48.730;9.304;2023-04-28T11:14:30;97228.13;;;18.44;100.00
967;BME280;56108;48.730;9.304;2023-04-28T11:16:48;97229.91;;;18.78;100.00
967;BME280;56108;48.730;9.304;2023-04-28T11:18:59;97223.28;;;18.64;100.00
967;BME280;56108;48.730;9.304;2023-04-28T11:21:13;97230.44;;;19.06;100.00
967;BME280;56108;48.730;9.304;2023-04-28T11:23:21;97233.47;;;19.27;100.00
967;BME280;56108;48.730;9.304;2023-04-28T11:25:52;97240.84;;;19.50;100.00
967;BME280;56108;48.730;9.304;2023-04-28T11:28:02;97236.47;;;19.49;100.00
967;BME280;56108;48.730;9.304;2023-04-28T11:30:20;97238.13;;;19.66;100.00
967;BME280;56108;48.730;9.304;2023-04-28T11:32:34;97241.84;;;19.41;100.00
967;BME280;56108;48.730;9.304;2023-04-28T11:34:50;97231.75;;;19.10;100.00
967;BME280;56108;48.730;9.304;2023-04-28T11:37:01;97237.00;;;18.95;100.00
967;BME280;56108;48.730;9.304;2023-04-28T11:39:11;97232.94;;;18.83;100.00
967;BME280;56108;48.730;9.304;2023-04-28T11:41:20;97229.25;;;18.92;100.00
967;BME280;56108;48.730;9.304;2023-04-28T11:43:28;97225.03;;;18.98;100.00
967;BME280;56108;48.730;9.304;2023-04-28T11:45:51;97230.75;;;18.95;100.00
967;BME280;56108;48.730;9.304;2023-04-28T11:47:59;97231.09;;;19.08;100.00
967;BME280;56108;48.730;9.304;2023-04-28T11:50:10;97228.22;;;19.26;100.00